Terminal Aerodrome Forecast
Issued by NWS Sioux Falls, SD

Home | Current Version | Previous Version | Graphics & Text | Print | Product List | Glossary Off
Versions: 1 2 3 4 5 6 7 8 9 10 11 12

000
FTUS43 KFSD 171700
TAFHON
TAF
KHON 171734Z 1718/1818 08007KT P6SM SCT100
     FM172100 13009KT P6SM BKN090
     FM180200 11013KT P6SM OVC080
     FM180800 14016G24KT P6SM OVC070
     FM181600 15024G32KT P6SM BKN140=

USA.gov is the U.S. government's official web portal to all federal, state and local government web resources and services.